Latest Weather Observations for Maatsuyker Island

IDT60801

Issued at 6:01 pm EST Monday 10 August 2020 (issued every 10 minutes, with the page automatically refreshed every 10 minutes)

About weather observations | Map of weather stations | Latest weather observations for TAS | Other Formats
Station Details ID: 094041 Name: MAATSUYKER ISLAND LIGHTHOUSE Lat: -43.66 Lon: 146.27 Height: 146.5 m
Data from the previous 72 hours. | See also: Recent months at Maatsuyker Island
Date/Time
EST
Temp
°C
App
Temp
°C
Dew
Point
°C
Rel
Hum
%
Delta-T
°C
Wind Press
QNH
hPa
Press
MSL
hPa
Rain since
9am
mm
Dir  Spd
km/h
Gust
km/h
Spd
kts
Gust
kts
10/06:00pm 7.4 - - - - NW 20 24 11 13 1019.9 1020.1 0.0
10/05:30pm 7.4 - - - - WNW 24 28 13 15 1020.1 - 0.0
10/05:00pm 7.6 - - - - WNW 20 24 11 13 1020.3 - 0.0
10/04:30pm 7.9 - - - - WNW 19 24 10 13 1020.4 - 0.0
10/04:00pm 8.5 - - - - WNW 22 28 12 15 1020.5 - 0.0
10/03:30pm 9.2 - - - - WNW 26 32 14 17 1020.4 - 0.0
10/03:00pm 9.2 - - - - WNW 26 32 14 17 1020.6 1020.9 0.0
10/02:30pm 8.7 - - - - WNW 32 39 17 21 1020.6 - 0.0
10/02:00pm 9.1 - - - - WNW 28 35 15 19 1020.6 - 0.0
10/01:30pm 8.6 - - - - WNW 32 37 17 20 1020.8 - 0.0
10/01:00pm 8.4 - - - - NW 22 28 12 15 1020.9 - 0.0
10/12:30pm 7.2 - - - - NW 19 28 10 15 1021.3 - 0.0
10/12:00pm 7.2 - - - - NW 19 24 10 13 1021.6 1021.9 0.0
10/11:30am 7.0 - - - - NW 20 28 11 15 1022.1 - 0.0
10/11:00am 6.9 - - - - NW 22 30 12 16 1022.3 - 0.0
10/10:30am 6.8 - - - - NW 22 30 12 16 1022.1 - 0.0
10/10:00am 6.7 - - - - NNW 20 24 11 13 1022.3 - 0.0
10/09:30am 6.7 - - - - NNW 20 30 11 16 1022.6 - 0.0
10/09:00am 6.4 - - - - NNW 20 28 11 15 1022.9 1023.2 4.0
10/08:30am 6.6 - - - - NW 20 28 11 15 1023.3 - 4.0
10/08:00am 6.5 - - - - NNW 20 26 11 14 1023.3 - 4.0
10/07:30am 6.5 - - - - NW 22 33 12 18 1023.5 - 4.0
10/07:00am 6.4 - - - - NW 20 26 11 14 1023.3 - 4.0
10/06:30am 6.1 - - - - NW 22 30 12 16 1023.1 - 4.0
10/06:00am 6.2 - - - - NNW 22 30 12 16 1022.9 1023.2 4.0
10/05:30am 6.3 - - - - NNW 24 32 13 17 1022.8 - 4.0
10/05:00am 6.3 - - - - NW 24 32 13 17 1022.8 - 4.0
10/04:30am 6.2 - - - - NNW 26 33 14 18 1022.7 - 3.8
10/04:00am 6.2 - - - - NNW 26 33 14 18 1022.7 - 3.4
10/03:30am 6.2 - - - - NNW 26 33 14 18 1022.8 - 3.0
10/03:00am 6.0 - - - - NNW 28 35 15 19 1023.0 1023.3 2.2
10/02:30am 6.1 - - - - NW 26 37 14 20 1023.0 - 2.0
10/02:00am 6.1 - - - - NW 30 37 16 20 1022.8 - 2.0
10/01:30am 6.2 - - - - NW 28 35 15 19 1022.8 - 1.8
10/01:00am 6.2 - - - - NNW 22 30 12 16 1023.0 - 1.4
10/12:30am 6.1 - - - - NNW 24 33 13 18 1022.9 - 1.0
10/12:00am 6.2 - - - - NNW 24 33 13 18 1022.8 1023.1 1.0
 
Date/Time
EST
Temp
°C
App
Temp
°C
Dew
Point
°C
Rel
Hum
%
Delta-T
°C
Wind Press
QNH
hPa
Press
MSL
hPa
Rain since
9am
mm
Dir  Spd
km/h
Gust
km/h
Spd
kts
Gust
kts
09/11:30pm 6.4 - - - - NNW 24 32 13 17 1023.1 - 0.8
09/11:00pm 6.4 - - - - NNW 24 30 13 16 1023.1 - 0.6
09/10:30pm 6.4 - - - - NNW 26 35 14 19 1023.0 - 0.6
09/10:00pm 6.6 - - - - NW 33 39 18 21 1022.6 - 0.4
09/09:30pm 6.7 - - - - NW 30 37 16 20 1022.9 - 0.2
09/09:00pm 6.8 - - - - NW 24 32 13 17 1023.0 1023.3 0.0
09/08:30pm 7.2 - - - - NW 26 32 14 17 1023.3 - 0.0
09/08:00pm 7.2 - - - - NW 28 32 15 17 1023.3 - 0.0
09/07:30pm 7.5 - - - - WNW 28 37 15 20 1023.2 - 0.0
09/07:00pm 7.2 - - - - NW 32 37 17 20 1023.6 - 0.0
09/06:30pm 7.5 - - - - NW 33 37 18 20 1023.7 - 0.0
09/06:00pm 7.5 - - - - WNW 33 41 18 22 1023.6 1023.8 0.0
09/05:30pm 7.4 - - - - WNW 28 33 15 18 1023.3 - 0.0
09/05:00pm 7.0 - - - - WNW 32 43 17 23 1023.3 - 0.0
09/04:30pm 7.0 - - - - WNW 32 37 17 20 1023.3 - 0.0
09/04:00pm 6.8 - - - - NW 30 33 16 18 1023.3 - 0.0
09/03:30pm 7.6 - - - - W 28 33 15 18 1023.7 - 0.0
09/03:00pm 8.0 - - - - WNW 33 39 18 21 1023.3 1023.6 0.0
09/02:30pm 7.8 - - - - WNW 33 41 18 22 1023.3 - 0.0
09/02:00pm 7.6 - - - - WNW 37 44 20 24 1023.5 - 0.0
09/01:30pm 7.6 - - - - WNW 33 39 18 21 1023.2 - 0.0
09/01:00pm 7.7 - - - - NW 35 43 19 23 1023.1 - 0.0
09/12:00pm 7.5 - - - - NW 32 39 17 21 1023.7 1023.9 0.0
09/11:30am 7.4 - - - - WNW 30 35 16 19 1024.3 - 0.0
09/11:00am 7.4 - - - - WNW 28 33 15 18 1024.5 - 0.0
09/10:30am 7.2 - - - - NW 24 32 13 17 1024.5 - 0.0
09/10:00am 7.1 - - - - WNW 26 32 14 17 1024.7 - 0.0
09/09:30am 7.0 - - - - NW 20 28 11 15 1024.6 - 0.0
09/09:00am 6.8 - - - - NW 13 15 7 8 1024.7 1024.9 0.0
09/08:30am 6.6 - - - - WNW 19 20 10 11 1024.6 - 0.0
09/08:00am 6.6 - - - - W 11 17 6 9 1024.4 - 0.0
09/07:30am 6.6 - - - - W 15 22 8 12 1024.3 - 0.0
09/07:00am 6.7 - - - - WNW 15 19 8 10 1024.2 - 0.0
09/06:30am 6.4 - - - - W 9 20 5 11 1024.0 - 0.0
09/06:00am 6.4 - - - - WNW 13 19 7 10 1023.9 1024.1 0.0
09/05:30am 6.4 - - - - NW 2 9 1 5 1023.7 - 0.0
09/05:00am 6.2 - - - - NW 2 9 1 5 1023.7 - 0.0
09/04:30am 6.2 - - - - WSW 9 13 5 7 1023.8 - 0.0
09/04:00am 6.5 - - - - WSW 9 13 5 7 1023.8 - 0.0
09/03:30am 6.3 - - - - SW 9 13 5 7 1023.6 - 0.0
09/03:00am 6.4 - - - - SSE 2 11 1 6 1023.8 1024.0 0.0
09/02:30am 6.3 - - - - S 9 15 5 8 1024.0 - 0.0
09/02:00am 6.4 - - - - ESE 7 11 4 6 1024.1 - 0.0
09/01:30am 6.4 - - - - E 7 13 4 7 1024.0 - 0.0
09/01:00am 6.2 - - - - SE 7 13 4 7 1024.0 - 0.0
09/12:30am 6.3 - - - - NE 6 13 3 7 1024.3 - 0.0
09/12:00am 6.3 - - - - S 17 20 9 11 1024.4 1024.6 0.0
 
Date/Time
EST
Temp
°C
App
Temp
°C
Dew
Point
°C
Rel
Hum
%
Delta-T
°C
Wind Press
QNH
hPa
Press
MSL
hPa
Rain since
9am
mm
Dir  Spd
km/h
Gust
km/h
Spd
kts
Gust
kts
08/11:30pm 6.8 - - - - E 9 20 5 11 1024.4 - 0.0
08/11:00pm 6.4 - - - - E 7 15 4 8 1024.3 - 0.0
08/10:30pm 6.3 - - - - NNE 6 9 3 5 1024.2 - 0.0
08/10:00pm 6.2 - - - - N 2 7 1 4 1024.3 - 0.0
08/09:30pm 6.4 - - - - ESE 11 17 6 9 1024.3 - 0.0
08/09:00pm 6.3 - - - - ESE 11 19 6 10 1024.2 1024.4 0.0
08/08:30pm 6.0 - - - - E 2 9 1 5 1024.3 - 0.0
08/08:00pm 5.9 - - - - WSW 2 7 1 4 1024.1 - 0.0
08/07:30pm 6.0 - - - - N 2 9 1 5 1024.2 - 0.0
08/07:00pm 6.4 - - - - NE 6 13 3 7 1024.2 - 0.0
08/06:30pm 6.9 - - - - NNE 6 15 3 8 1024.1 - 0.0
08/06:00pm 7.1 - - - - N 4 15 2 8 1024.2 1024.4 0.0
08/05:30pm 7.3 - - - - N 4 7 2 4 1024.1 - 0.0
08/05:00pm 7.4 - - - - NNE 4 15 2 8 1024.0 - 0.0
08/04:30pm 7.7 - - - - SSE 20 26 11 14 1024.1 - 0.0
08/04:00pm 8.3 - - - - SSE 22 28 12 15 1024.0 - 0.0
08/03:30pm 8.7 - - - - SSE 22 26 12 14 1023.9 - 0.0
08/03:00pm 9.2 - - - - SSE 26 32 14 17 1023.7 1023.9 0.0
08/02:30pm 10.1 - - - - ESE 22 28 12 15 1023.7 - 0.0
08/02:00pm 9.5 - - - - SE 20 24 11 13 1023.8 - 0.0
08/01:30pm 9.3 - - - - SE 19 22 10 12 1023.9 - 0.0
08/01:00pm 9.2 - - - - SE 6 17 3 9 1024.0 - 0.0
08/12:30pm 9.6 - - - - NNW 4 7 2 4 1024.2 - 0.0
08/12:00pm 9.1 - - - - NE 6 13 3 7 1024.5 1024.7 0.0
08/11:30am 9.1 - - - - NW 6 9 3 5 1025.0 - 0.0
08/11:00am 9.1 - - - - N 7 13 4 7 1025.3 - 0.0
08/10:30am 8.8 - - - - NNW 6 11 3 6 1025.4 - 0.0
08/10:00am 8.3 - - - - NW 7 11 4 6 1025.5 - 0.0
08/09:30am 7.4 - - - - NW 6 9 3 5 1025.5 - 0.0
08/09:00am 6.4 - - - - NW 7 13 4 7 1025.5 1025.7 0.8
08/08:30am 6.4 - - - - WNW 6 13 3 7 1025.2 - 0.8
08/08:00am 6.2 - - - - NW 6 11 3 6 1025.0 - 0.8
08/07:30am 6.4 - - - - NW 7 15 4 8 1025.0 - 0.8
08/07:00am 6.4 - - - - NNW 6 13 3 7 1025.2 - 0.8
08/06:30am 6.6 - - - - NW 7 13 4 7 1025.1 - 0.8
08/06:00am 6.8 - - - - NW 6 11 3 6 1025.3 1025.5 0.8
08/05:30am 6.6 - - - - NW 7 13 4 7 1025.3 - 0.8
08/05:00am 6.5 - - - - NW 7 13 4 7 1025.3 - 0.8
08/04:30am 6.7 - - - - NW 6 11 3 6 1025.3 - 0.8
08/04:00am 6.6 - - - - NNW 6 9 3 5 1025.5 - 0.8
08/03:30am 6.6 - - - - NNW 6 9 3 5 1025.4 - 0.8
08/03:00am 6.9 - - - - N 6 13 3 7 1025.7 1025.9 0.8
08/02:30am 7.2 - - - - NW 7 13 4 7 1026.0 - 0.8
08/02:00am 6.8 - - - - NW 6 11 3 6 1026.0 - 0.8
08/01:30am 6.9 - - - - NW 7 15 4 8 1026.0 - 0.8
08/01:00am 7.0 - - - - NNW 9 20 5 11 1026.2 - 0.8
08/12:30am 7.1 - - - - N 9 20 5 11 1026.3 - 0.8
08/12:00am 7.2 - - - - ENE 13 20 7 11 1026.4 1026.7 0.8
 
Date/Time
EST
Temp
°C
App
Temp
°C
Dew
Point
°C
Rel
Hum
%
Delta-T
°C
Wind Press
QNH
hPa
Press
MSL
hPa
Rain since
9am
mm
Dir  Spd
km/h
Gust
km/h
Spd
kts
Gust
kts
07/11:30pm 7.0 - - - - NE 13 20 7 11 1026.4 - 0.8
07/11:00pm 7.1 - - - - NNE 9 19 5 10 1026.5 - 0.8
07/10:30pm 7.3 - - - - ENE 13 20 7 11 1026.6 - 0.8
07/10:00pm 7.4 - - - - N 9 17 5 9 1027.1 - 0.8
07/09:30pm 7.3 - - - - W 9 15 5 8 1027.1 - 0.8
07/09:00pm 6.8 - - - - NW 6 13 3 7 1027.1 1027.4 0.8
07/08:30pm 7.1 - - - - WNW 7 11 4 6 1026.9 - 0.8
07/08:00pm 7.3 - - - - WNW 6 11 3 6 1026.8 - 0.8
07/07:30pm 6.9 - - - - NW 7 11 4 6 1026.7 - 0.8
07/07:00pm 7.1 - - - - NW 6 13 3 7 1026.6 - 0.8
07/06:30pm 7.1 - - - - NW 4 11 2 6 1026.3 - 0.8

Other formats

Comma delimited format used in spreadsheet applications
http://www.bom.gov.au/fwo/IDT60801/IDT60801.94962.axf

JavaScript Object Notation format (JSON) in row-major order
http://www.bom.gov.au/fwo/IDT60801/IDT60801.94962.json

Data quality

Most of these data are generated automatically and are frequently updated. Quality checks on data are not normally performed. It is possible for incorrect values to appear. Refer to information at About Latest Weather Observations and please check the disclaimer before using these data.